createdAt,value
2022-10-28T00:03:10.477Z,97516.72
2022-10-28T00:08:12.712Z,97512.88
2022-10-28T00:13:14.720Z,97523.97
2022-10-28T00:18:16.745Z,97528.38
2022-10-28T00:23:18.893Z,97537.91
2022-10-28T00:28:21.085Z,97528.31
2022-10-28T00:33:23.162Z,97525.59
2022-10-28T00:38:25.181Z,97536.91
2022-10-28T00:43:38.053Z,97530.72
2022-10-28T00:48:43.518Z,97525.28
2022-10-28T00:53:48.521Z,97532.28
2022-10-28T00:58:53.464Z,97523.81
2022-10-28T01:03:57.422Z,97528.06
2022-10-28T01:09:00.255Z,97506.19
2022-10-28T01:14:23.817Z,97528.97
2022-10-28T01:20:00.034Z,97523.50
2022-10-28T01:25:27.361Z,97523.56
2022-10-28T01:30:54.797Z,97510.69
2022-10-28T01:36:12.169Z,97530.34
2022-10-28T01:41:31.078Z,97514.97
2022-10-28T01:46:51.971Z,97513.53
2022-10-28T01:51:57.482Z,97530.69
2022-10-28T01:57:01.776Z,97531.75
2022-10-28T02:02:04.334Z,97533.72
2022-10-28T02:07:06.609Z,97527.63
2022-10-28T02:12:11.431Z,97538.00
2022-10-28T02:17:36.756Z,97545.06
2022-10-28T02:22:57.518Z,97540.94
2022-10-28T02:28:22.013Z,97539.13
2022-10-28T02:33:34.891Z,97541.78
2022-10-28T02:38:44.664Z,97534.88
2022-10-28T02:43:49.650Z,97534.81
2022-10-28T02:48:57.507Z,97550.41
2022-10-28T02:54:13.579Z,97550.59
2022-10-28T02:59:15.853Z,97535.22
2022-10-28T03:04:18.174Z,97548.06
2022-10-28T03:09:20.499Z,97535.03
2022-10-28T03:14:22.670Z,97557.44
2022-10-28T03:19:25.264Z,97562.69
2022-10-28T03:24:27.514Z,97561.84
2022-10-28T03:29:29.596Z,97538.66
2022-10-28T03:34:31.705Z,97558.47
2022-10-28T03:39:33.967Z,97555.00
2022-10-28T03:44:36.095Z,97555.91
2022-10-28T03:49:38.181Z,97542.16
2022-10-28T03:54:40.273Z,97554.34
2022-10-28T03:59:42.263Z,97547.41
2022-10-28T04:04:44.479Z,97534.69
2022-10-28T04:09:49.969Z,97528.69
2022-10-28T04:14:53.737Z,97541.50
2022-10-28T04:19:56.025Z,97526.88
2022-10-28T04:24:58.069Z,97541.41
2022-10-28T04:30:00.158Z,97549.13
2022-10-28T04:35:02.363Z,97536.22
2022-10-28T04:40:05.655Z,97554.41
2022-10-28T04:45:08.605Z,97537.13
2022-10-28T04:50:10.646Z,97534.63
2022-10-28T04:55:12.858Z,97551.78
2022-10-28T05:00:15.128Z,97528.25
2022-10-28T05:05:18.187Z,97539.31
2022-10-28T05:10:20.465Z,97535.84
2022-10-28T05:15:22.686Z,97534.03
2022-10-28T05:20:25.130Z,97549.38
2022-10-28T05:25:27.183Z,97546.69
2022-10-28T05:30:29.469Z,97566.38
2022-10-28T05:35:31.991Z,97560.47
2022-10-28T05:40:34.625Z,97562.81
2022-10-28T05:45:36.996Z,97579.94
2022-10-28T05:50:39.015Z,97569.75
2022-10-28T05:55:45.223Z,97580.75
2022-10-28T06:00:49.974Z,97581.63
2022-10-28T06:05:52.397Z,97576.81
2022-10-28T06:10:53.721Z,97590.22
2022-10-28T06:15:56.227Z,97585.69
2022-10-28T06:20:58.911Z,97578.31
2022-10-28T06:26:03.352Z,97577.59
2022-10-28T06:31:10.585Z,97571.97
2022-10-28T06:36:12.814Z,97563.22
2022-10-28T06:41:14.878Z,97564.69
2022-10-28T06:46:16.991Z,97520.22
2022-10-28T06:51:20.696Z,97524.00
2022-10-28T06:56:23.366Z,97504.72
2022-10-28T07:01:25.520Z,97510.88
2022-10-28T07:06:27.912Z,97503.09
2022-10-28T07:11:30.305Z,97500.19
2022-10-28T07:16:32.484Z,97499.13
2022-10-28T07:21:34.848Z,97501.97
2022-10-28T07:26:37.147Z,97492.13
2022-10-28T07:31:39.205Z,97485.97
2022-10-28T07:36:41.228Z,97484.88
2022-10-28T07:41:43.450Z,97486.28
2022-10-28T07:46:45.674Z,97473.25
2022-10-28T07:51:50.975Z,97490.41
2022-10-28T07:56:53.066Z,97472.56
2022-10-28T08:01:55.522Z,97467.66
2022-10-28T08:06:58.085Z,97474.78
2022-10-28T08:12:00.456Z,97457.53
2022-10-28T08:17:02.779Z,97460.97
2022-10-28T08:22:05.075Z,97469.03
2022-10-28T08:27:07.277Z,97458.25
2022-10-28T08:32:09.971Z,97446.75
2022-10-28T08:37:12.181Z,97454.88
2022-10-28T08:42:30.289Z,97452.09
2022-10-28T08:47:57.528Z,97459.53
2022-10-28T08:58:39.560Z,97464.13
2022-10-28T09:03:45.494Z,97453.84
2022-10-28T09:08:49.798Z,97448.41
2022-10-28T09:14:10.710Z,97468.13
2022-10-28T09:19:28.777Z,97440.72
2022-10-28T09:24:46.415Z,97439.31
2022-10-28T09:30:07.045Z,97435.28
2022-10-28T09:35:15.125Z,97420.50
2022-10-28T09:40:22.561Z,97420.50
2022-10-28T09:45:28.968Z,97419.50
2022-10-28T09:50:33.189Z,97428.94
2022-10-28T09:55:35.636Z,97416.22
2022-10-28T10:00:37.910Z,97408.50
2022-10-28T10:05:45.487Z,97396.03
2022-10-28T10:10:56.228Z,97399.91
2022-10-28T10:16:07.169Z,97401.44
2022-10-28T10:21:09.388Z,97407.03
2022-10-28T10:26:17.388Z,97404.16
2022-10-28T10:31:27.642Z,97391.91
2022-10-28T10:36:31.707Z,97383.06
2022-10-28T10:41:42.481Z,97382.88
2022-10-28T10:46:44.752Z,97382.13
2022-10-28T10:51:57.336Z,97377.13
2022-10-28T10:57:21.985Z,97382.97
2022-10-28T11:02:39.994Z,97381.16
2022-10-28T11:07:48.448Z,97380.19
2022-10-28T11:13:01.059Z,97365.75
2022-10-28T11:18:09.236Z,97370.09
2022-10-28T11:23:35.383Z,97369.38
2022-10-28T11:28:58.018Z,97359.13
2022-10-28T11:34:27.624Z,97361.41
2022-10-28T11:39:36.980Z,97354.34
2022-10-28T11:45:09.328Z,97366.25
2022-10-28T11:50:31.137Z,97356.97
2022-10-28T11:55:48.141Z,97349.66
2022-10-28T12:01:38.335Z,97345.16
2022-10-28T12:06:43.252Z,97359.84
2022-10-28T12:12:13.662Z,97336.66
2022-10-28T12:17:30.784Z,97348.94
2022-10-28T12:22:54.988Z,97353.53
2022-10-28T12:28:23.737Z,97341.31
2022-10-28T12:33:28.748Z,97345.53
2022-10-28T12:38:39.042Z,97340.06
2022-10-28T12:44:07.030Z,97327.41
2022-10-28T12:49:51.109Z,97334.88
2022-10-28T13:00:23.574Z,97311.47
2022-10-28T13:05:31.728Z,97337.44
2022-10-28T13:10:43.120Z,97331.41
2022-10-28T13:16:13.627Z,97321.34
2022-10-28T13:21:23.724Z,97310.53
2022-10-28T13:26:34.192Z,97304.50
2022-10-28T13:31:42.208Z,97330.09
2022-10-28T13:36:47.131Z,97329.53
2022-10-28T13:41:49.743Z,97317.31
2022-10-28T13:47:16.572Z,97338.31
2022-10-28T13:52:21.583Z,97317.28
2022-10-28T13:57:36.916Z,97319.91
2022-10-28T14:02:48.411Z,97329.78
2022-10-28T14:07:55.539Z,97322.38
2022-10-28T14:13:05.111Z,97308.94
2022-10-28T14:23:42.978Z,97331.56
2022-10-28T14:28:45.250Z,97336.06
2022-10-28T14:33:56.714Z,97329.94
2022-10-28T14:39:04.814Z,97332.59
2022-10-28T14:44:25.797Z,97337.44
2022-10-28T14:49:29.603Z,97336.09
2022-10-28T14:54:44.046Z,97342.13
2022-10-28T14:59:46.827Z,97338.19
2022-10-28T15:05:01.884Z,97339.84
2022-10-28T15:10:14.227Z,97330.25
2022-10-28T15:15:24.714Z,97337.59
2022-10-28T15:20:34.938Z,97352.78
2022-10-28T15:25:37.231Z,97342.66
2022-10-28T15:30:46.037Z,97362.78
2022-10-28T15:35:49.188Z,97347.47
2022-10-28T15:40:51.979Z,97352.66
2022-10-28T15:45:54.808Z,97371.66
2022-10-28T15:51:15.485Z,97369.69
2022-10-28T15:56:28.236Z,97382.63
2022-10-28T16:01:40.752Z,97360.50
2022-10-28T16:06:43.374Z,97372.13
2022-10-28T16:11:52.135Z,97392.84
2022-10-28T16:16:54.458Z,97383.25
2022-10-28T16:21:56.615Z,97397.50
2022-10-28T16:27:21.069Z,97400.38
2022-10-28T16:32:37.000Z,97397.88
2022-10-28T16:37:44.525Z,97393.19
2022-10-28T16:42:48.117Z,97400.47
2022-10-28T16:47:50.246Z,97386.09
2022-10-28T16:52:54.532Z,97410.16
2022-10-28T16:57:57.005Z,97395.88
2022-10-28T17:02:59.588Z,97392.66
2022-10-28T17:08:05.874Z,97403.31
2022-10-28T17:13:15.386Z,97404.16
2022-10-28T17:18:17.639Z,97407.94
2022-10-28T17:23:20.933Z,97401.97
2022-10-28T17:28:23.026Z,97405.59
2022-10-28T17:33:25.190Z,97420.47
2022-10-28T17:38:27.209Z,97400.84
2022-10-28T17:43:29.375Z,97423.78
2022-10-28T17:48:31.653Z,97420.72
2022-10-28T17:53:33.988Z,97433.78
2022-10-28T17:58:36.167Z,97435.94
2022-10-28T18:03:39.256Z,97433.72
2022-10-28T18:08:43.277Z,97428.78
2022-10-28T18:13:47.823Z,97420.78
2022-10-28T18:18:51.764Z,97427.59
2022-10-28T18:23:57.310Z,97423.53
2022-10-28T18:29:04.064Z,97433.50
2022-10-28T18:34:06.702Z,97412.91
2022-10-28T18:39:09.339Z,97433.22
2022-10-28T18:44:14.371Z,97437.81
2022-10-28T18:49:16.799Z,97438.38
2022-10-28T18:54:18.819Z,97430.66
2022-10-28T18:59:20.837Z,97445.03
2022-10-28T19:04:23.044Z,97425.94
2022-10-28T19:09:25.129Z,97422.84
2022-10-28T19:14:27.227Z,97437.41
2022-10-28T19:19:29.382Z,97446.47
2022-10-28T19:24:31.588Z,97441.06
2022-10-28T19:29:33.800Z,97443.03
2022-10-28T19:34:35.948Z,97447.38
2022-10-28T19:39:38.418Z,97452.94
2022-10-28T19:44:40.509Z,97453.56
2022-10-28T19:49:44.518Z,97462.06
2022-10-28T19:54:47.115Z,97447.63
2022-10-28T19:59:49.311Z,97461.19
2022-10-28T20:04:55.157Z,97449.56
2022-10-28T20:15:06.016Z,97434.13
2022-10-28T20:20:08.786Z,97446.06
2022-10-28T20:25:10.830Z,97429.44
2022-10-28T20:30:13.347Z,97428.50
2022-10-28T20:35:15.613Z,97446.75
2022-10-28T20:40:17.772Z,97433.00
2022-10-28T20:45:19.802Z,97438.88
2022-10-28T20:50:21.948Z,97458.69
2022-10-28T20:55:24.369Z,97448.75
2022-10-28T21:00:26.612Z,97446.34
2022-10-28T21:05:31.073Z,97447.91
2022-10-28T21:10:35.617Z,97455.81
2022-10-28T21:15:39.898Z,97459.63
2022-10-28T21:20:42.257Z,97439.28
2022-10-28T21:25:51.785Z,97427.13
2022-10-28T21:31:06.242Z,97442.09
2022-10-28T21:36:15.464Z,97440.03
2022-10-28T21:41:19.893Z,97458.09
2022-10-28T21:46:24.536Z,97461.75
2022-10-28T21:51:26.822Z,97447.56
2022-10-28T21:56:28.980Z,97436.25
2022-10-28T22:01:33.212Z,97434.56
2022-10-28T22:06:35.661Z,97438.78
2022-10-28T22:11:38.039Z,97456.97
2022-10-28T22:16:40.804Z,97446.84
2022-10-28T22:21:50.585Z,97438.53
2022-10-28T22:26:55.271Z,97397.38
2022-10-28T22:31:57.520Z,97424.69
2022-10-28T22:36:59.609Z,97429.78
2022-10-28T22:42:02.883Z,97422.09
2022-10-28T22:47:05.074Z,97408.88
2022-10-28T22:52:07.203Z,97413.91
2022-10-28T22:57:09.353Z,97405.66
2022-10-28T23:02:11.553Z,97409.59
2022-10-28T23:07:14.135Z,97407.75
2022-10-28T23:12:16.433Z,97410.28
2022-10-28T23:17:18.471Z,97410.16
2022-10-28T23:22:20.485Z,97400.78
2022-10-28T23:27:22.815Z,97406.00
2022-10-28T23:32:26.251Z,97404.69
2022-10-28T23:37:28.679Z,97402.44
2022-10-28T23:42:31.458Z,97388.72
2022-10-28T23:47:33.501Z,97392.03
2022-10-28T23:52:35.687Z,97408.44
2022-10-28T23:57:37.905Z,97376.47
